createdAt,value
2023-03-21T00:01:52.756Z,95250.13
2023-03-21T00:04:21.232Z,95238.56
2023-03-21T00:06:51.326Z,95118.13
2023-03-21T00:09:19.818Z,95230.94
2023-03-21T00:11:48.443Z,95231.50
2023-03-21T00:14:20.286Z,95224.19
2023-03-21T00:16:52.243Z,95224.19
2023-03-21T00:19:22.080Z,95215.81
2023-03-21T00:22:06.478Z,95211.94
2023-03-21T00:24:36.152Z,95208.63
2023-03-21T00:29:53.023Z,95211.28
2023-03-21T00:32:22.566Z,95203.38
2023-03-21T00:35:11.805Z,95201.22
2023-03-21T00:37:41.864Z,95203.44
2023-03-21T00:40:23.085Z,95192.94
2023-03-21T00:42:54.011Z,95195.59
2023-03-21T00:45:22.459Z,95199.63
2023-03-21T00:47:50.893Z,95203.47
2023-03-21T00:50:19.457Z,95200.56
2023-03-21T00:52:49.308Z,95192.56
2023-03-21T00:55:19.351Z,95177.84
2023-03-21T00:57:56.215Z,95198.78
2023-03-21T01:00:29.616Z,95198.25
2023-03-21T01:03:04.375Z,95198.28
2023-03-21T01:05:57.602Z,95200.59
2023-03-21T01:08:35.167Z,95141.16
2023-03-21T01:11:09.256Z,95208.47
2023-03-21T01:13:43.966Z,95199.00
2023-03-21T01:16:13.143Z,95150.25
2023-03-21T01:18:43.132Z,95200.38
2023-03-21T01:21:14.020Z,95193.44
2023-03-21T01:23:45.540Z,95199.44
2023-03-21T01:26:14.289Z,95196.31
2023-03-21T01:28:43.926Z,95191.00
2023-03-21T01:31:14.607Z,95191.38
2023-03-21T01:33:43.496Z,95192.78
2023-03-21T01:36:17.365Z,95192.78
2023-03-21T01:38:48.104Z,95187.41
2023-03-21T01:41:33.570Z,95193.69
2023-03-21T01:44:11.386Z,95191.69
2023-03-21T01:46:53.930Z,95183.31
2023-03-21T01:49:34.504Z,95173.81
2023-03-21T01:52:12.801Z,95190.13
2023-03-21T01:54:46.513Z,95190.38
2023-03-21T01:57:25.868Z,95193.56
2023-03-21T01:59:56.175Z,95188.06
2023-03-21T02:02:28.533Z,95193.03
2023-03-21T02:04:58.380Z,95143.25
2023-03-21T02:07:31.747Z,95139.72
2023-03-21T02:10:02.081Z,95200.59
2023-03-21T02:12:30.418Z,95187.66
2023-03-21T02:14:59.135Z,95192.06
2023-03-21T02:17:35.645Z,95190.97
2023-03-21T02:20:28.732Z,95185.41
2023-03-21T02:23:30.075Z,95203.75
2023-03-21T02:26:42.523Z,95198.03
2023-03-21T02:29:29.816Z,95206.94
2023-03-21T02:32:20.244Z,95200.34
2023-03-21T02:35:14.618Z,95203.28
2023-03-21T02:37:55.211Z,95194.81
2023-03-21T02:40:34.327Z,95202.28
2023-03-21T02:43:17.217Z,95190.31
2023-03-21T02:45:56.271Z,95186.81
2023-03-21T02:48:38.132Z,95042.03
2023-03-21T02:51:17.768Z,95164.56
2023-03-21T02:54:04.587Z,95189.13
2023-03-21T02:56:40.465Z,95187.34
2023-03-21T02:59:09.434Z,95179.94
2023-03-21T03:01:37.913Z,95170.25
2023-03-21T03:04:06.532Z,95178.09
2023-03-21T03:06:49.248Z,95166.38
2023-03-21T03:09:31.804Z,95170.22
2023-03-21T03:12:08.612Z,95151.69
2023-03-21T03:15:02.284Z,95157.97
2023-03-21T03:17:43.056Z,95162.47
2023-03-21T03:20:26.055Z,95152.91
2023-03-21T03:23:01.009Z,95168.25
2023-03-21T03:25:42.929Z,95156.63
2023-03-21T03:28:14.633Z,95148.31
2023-03-21T03:30:54.269Z,95153.59
2023-03-21T03:33:35.729Z,94986.75
2023-03-21T03:36:07.053Z,95150.41
2023-03-21T03:38:40.317Z,95154.97
2023-03-21T03:41:15.545Z,95147.28
2023-03-21T03:43:48.969Z,95142.19
2023-03-21T03:46:25.713Z,95151.63
2023-03-21T03:48:57.594Z,95135.69
2023-03-21T03:51:29.832Z,95148.09
2023-03-21T03:54:02.042Z,95139.34
2023-03-21T03:56:32.345Z,95134.03
2023-03-21T03:59:04.576Z,95142.25
2023-03-21T04:01:32.841Z,95130.78
2023-03-21T04:04:12.689Z,95139.97
2023-03-21T04:06:41.720Z,95142.63
2023-03-21T04:09:20.706Z,95144.25
2023-03-21T04:11:53.141Z,95136.88
2023-03-21T04:14:21.429Z,95092.47
2023-03-21T04:16:50.699Z,95136.00
2023-03-21T04:19:19.360Z,95129.09
2023-03-21T04:21:47.969Z,95135.94
2023-03-21T04:24:17.444Z,95149.72
2023-03-21T04:26:45.739Z,95154.44
2023-03-21T04:29:15.474Z,95148.81
2023-03-21T04:31:43.714Z,95152.28
2023-03-21T04:34:12.753Z,95074.16
2023-03-21T04:36:44.413Z,95152.88
2023-03-21T04:39:13.385Z,95103.16
2023-03-21T04:41:41.901Z,95086.78
2023-03-21T04:44:11.896Z,94955.56
2023-03-21T04:46:41.964Z,95146.47
2023-03-21T04:49:10.799Z,95140.09
2023-03-21T04:51:39.550Z,95154.59
2023-03-21T04:56:36.499Z,95102.94
2023-03-21T04:59:08.995Z,95163.81
2023-03-21T05:01:37.425Z,95164.63
2023-03-21T05:04:07.286Z,95164.91
2023-03-21T05:06:35.895Z,95096.94
2023-03-21T05:09:07.165Z,95154.06
2023-03-21T05:11:37.887Z,95157.84
2023-03-21T05:14:06.782Z,95167.50
2023-03-21T05:16:36.549Z,95157.25
2023-03-21T05:19:06.435Z,95154.00
2023-03-21T05:21:41.473Z,95127.94
2023-03-21T05:24:12.353Z,95148.06
2023-03-21T05:26:41.319Z,95164.59
2023-03-21T05:29:10.573Z,95154.47
2023-03-21T05:31:38.972Z,95116.19
2023-03-21T05:34:08.656Z,95159.28
2023-03-21T05:36:37.532Z,95162.00
2023-03-21T05:39:06.679Z,95145.34
2023-03-21T05:41:34.991Z,95158.53
2023-03-21T05:44:03.217Z,95166.00
2023-03-21T05:46:31.795Z,95169.56
2023-03-21T05:49:00.111Z,95170.41
2023-03-21T05:51:29.777Z,95167.97
2023-03-21T05:53:58.022Z,95155.53
2023-03-21T05:56:26.251Z,95161.72
2023-03-21T05:58:54.633Z,95166.53
2023-03-21T06:01:22.939Z,95120.16
2023-03-21T06:03:51.209Z,95177.72
2023-03-21T06:06:19.450Z,95169.38
2023-03-21T06:08:49.489Z,95158.78
2023-03-21T06:11:24.972Z,95154.13
2023-03-21T06:13:53.397Z,95153.16
2023-03-21T06:16:21.758Z,95164.53
2023-03-21T06:18:50.040Z,95163.66
2023-03-21T06:21:18.375Z,95150.72
2023-03-21T06:23:48.167Z,95155.78
2023-03-21T06:26:16.455Z,95155.44
2023-03-21T06:28:44.743Z,95158.22
2023-03-21T06:31:13.949Z,95082.34
2023-03-21T06:33:42.378Z,95158.66
2023-03-21T06:36:11.586Z,95140.44
2023-03-21T06:38:39.878Z,95163.53
2023-03-21T06:41:11.756Z,95165.44
2023-03-21T06:43:40.204Z,95136.69
2023-03-21T06:46:08.604Z,95168.69
2023-03-21T06:48:37.656Z,95152.91
2023-03-21T06:51:06.396Z,95153.44
2023-03-21T06:53:36.085Z,95144.97
2023-03-21T06:56:04.562Z,95157.81
2023-03-21T06:58:34.378Z,95122.50
2023-03-21T07:01:03.739Z,95134.09
2023-03-21T07:03:32.988Z,95165.41
2023-03-21T07:06:07.257Z,95156.69
2023-03-21T07:08:35.670Z,95153.25
2023-03-21T07:11:04.017Z,95161.94
2023-03-21T07:13:33.758Z,95158.94
2023-03-21T07:16:02.200Z,95122.03
2023-03-21T07:18:31.124Z,95152.88
2023-03-21T07:20:59.851Z,95153.28
2023-03-21T07:23:28.576Z,95155.50
2023-03-21T07:25:57.556Z,95156.22
2023-03-21T07:28:25.846Z,95150.28
2023-03-21T07:30:57.854Z,95144.84
2023-03-21T07:33:27.229Z,95152.81
2023-03-21T07:35:57.870Z,95151.88
2023-03-21T07:38:26.906Z,95142.81
2023-03-21T07:40:55.628Z,95134.41
2023-03-21T07:43:23.886Z,95144.50
2023-03-21T07:45:52.154Z,95136.19
2023-03-21T07:48:22.041Z,95158.53
2023-03-21T07:50:51.440Z,95129.19
2023-03-21T07:53:19.787Z,95140.50
2023-03-21T07:55:51.711Z,95149.72
2023-03-21T07:58:20.132Z,95130.00
2023-03-21T08:00:48.987Z,95152.56
2023-03-21T08:03:17.348Z,95133.31
2023-03-21T08:05:47.596Z,95135.28
2023-03-21T08:08:15.820Z,95115.81
2023-03-21T08:10:44.720Z,95141.09
2023-03-21T08:13:13.160Z,95127.69
2023-03-21T08:15:42.564Z,95135.06
2023-03-21T08:18:11.988Z,95134.03
2023-03-21T08:20:40.514Z,95135.31
2023-03-21T08:23:10.209Z,95129.81
2023-03-21T08:25:39.110Z,95130.06
2023-03-21T08:28:07.564Z,95130.28
2023-03-21T08:30:35.944Z,95130.72
2023-03-21T08:33:05.587Z,95119.97
2023-03-21T08:35:34.308Z,95115.19
2023-03-21T08:38:04.436Z,95056.34
2023-03-21T08:40:34.784Z,95132.88
2023-03-21T08:43:03.070Z,95123.44
2023-03-21T08:45:31.739Z,95125.38
2023-03-21T08:48:00.147Z,95126.66
2023-03-21T08:50:31.818Z,95100.44
2023-03-21T08:53:00.122Z,95134.97
2023-03-21T08:55:28.447Z,95113.47
2023-03-21T08:57:58.315Z,95123.28
2023-03-21T09:00:27.335Z,95121.88
2023-03-21T09:02:56.174Z,95117.78
2023-03-21T09:05:25.943Z,95070.50
2023-03-21T09:07:54.697Z,95109.59
2023-03-21T09:10:24.626Z,95111.63
2023-03-21T09:12:55.064Z,95109.56
2023-03-21T09:15:26.134Z,95106.59
2023-03-21T09:17:56.023Z,95101.88
2023-03-21T09:20:31.217Z,95096.47
2023-03-21T09:23:01.878Z,95052.25
2023-03-21T09:25:31.893Z,95092.50
2023-03-21T09:28:00.700Z,95088.81
2023-03-21T09:30:31.689Z,95080.41
2023-03-21T09:33:01.519Z,95074.88
2023-03-21T09:35:30.639Z,95086.53
2023-03-21T09:37:59.268Z,95084.66
2023-03-21T09:40:43.845Z,95081.72
2023-03-21T09:43:25.133Z,95078.56
2023-03-21T09:46:00.358Z,95066.66
2023-03-21T09:48:46.859Z,95069.59
2023-03-21T09:51:21.054Z,95076.66
2023-03-21T09:53:52.150Z,95038.59
2023-03-21T09:56:21.297Z,95048.72
2023-03-21T09:58:54.878Z,95054.13
2023-03-21T10:01:29.988Z,95045.19
2023-03-21T10:04:01.092Z,95054.06
2023-03-21T10:06:30.972Z,95047.59
2023-03-21T10:09:06.792Z,95028.63
2023-03-21T10:11:43.549Z,95038.34
2023-03-21T10:14:19.130Z,95031.31
2023-03-21T10:16:53.455Z,95024.84
2023-03-21T10:19:23.512Z,95024.75
2023-03-21T10:22:02.754Z,95003.16
2023-03-21T10:24:34.603Z,94998.84
2023-03-21T10:27:04.515Z,94997.44
2023-03-21T10:29:37.325Z,94991.84
2023-03-21T10:32:11.163Z,94992.75
2023-03-21T10:34:43.969Z,94983.03
2023-03-21T10:37:14.049Z,94942.97
2023-03-21T10:39:45.045Z,94993.69
2023-03-21T10:42:22.410Z,94948.41
2023-03-21T10:44:52.560Z,94989.25
2023-03-21T10:47:24.488Z,94982.13
2023-03-21T10:50:10.167Z,94977.19
2023-03-21T10:52:46.839Z,94910.28
2023-03-21T10:55:26.534Z,94978.59
2023-03-21T10:57:58.999Z,94971.41
2023-03-21T11:00:31.518Z,94977.09
2023-03-21T11:03:01.894Z,94971.13
2023-03-21T11:05:37.547Z,94965.72
2023-03-21T11:08:11.954Z,94922.44
2023-03-21T11:10:52.477Z,94955.63
2023-03-21T11:13:26.444Z,94957.75
2023-03-21T11:15:58.417Z,94948.63
2023-03-21T11:18:33.222Z,94948.78
2023-03-21T11:21:07.423Z,94944.34
2023-03-21T11:23:39.981Z,94936.03
2023-03-21T11:26:12.870Z,94923.75
2023-03-21T11:28:42.712Z,94925.72
2023-03-21T11:31:11.375Z,94930.00
2023-03-21T11:33:46.060Z,94931.25
2023-03-21T11:36:34.930Z,94923.78
2023-03-21T11:39:14.889Z,94913.09
2023-03-21T11:41:44.293Z,94912.25
2023-03-21T11:44:28.253Z,94909.44
2023-03-21T11:46:56.826Z,94906.00
2023-03-21T11:49:28.023Z,94908.63
2023-03-21T11:52:07.203Z,94858.00
2023-03-21T11:54:50.100Z,94892.47
2023-03-21T11:57:27.582Z,94899.59
2023-03-21T12:00:04.989Z,94826.94
2023-03-21T12:02:55.969Z,94893.31
2023-03-21T12:05:30.066Z,94845.78
2023-03-21T12:08:06.596Z,94885.38
2023-03-21T12:10:44.459Z,94881.44
2023-03-21T12:13:34.896Z,94875.84
2023-03-21T12:16:16.995Z,94876.88
2023-03-21T12:19:01.288Z,94872.03
2023-03-21T12:21:40.425Z,94866.28
2023-03-21T12:24:13.926Z,94867.28
2023-03-21T12:26:49.040Z,94865.53
2023-03-21T12:29:31.389Z,94806.66
2023-03-21T12:32:11.900Z,94858.75
2023-03-21T12:35:06.634Z,94847.09
2023-03-21T12:37:42.471Z,94852.94
2023-03-21T12:40:18.640Z,94851.75
2023-03-21T12:43:13.999Z,94853.88
2023-03-21T12:45:47.776Z,94800.72
2023-03-21T12:48:23.837Z,94839.00
2023-03-21T12:50:55.733Z,94831.97
2023-03-21T12:53:37.191Z,94823.75
2023-03-21T12:56:11.568Z,94826.78
2023-03-21T12:58:48.710Z,94831.09
2023-03-21T13:01:19.685Z,94794.81
2023-03-21T13:03:52.918Z,94780.28
2023-03-21T13:06:25.618Z,94836.44
2023-03-21T13:09:01.938Z,94784.28
2023-03-21T13:11:32.591Z,94827.03
2023-03-21T13:14:07.546Z,94821.81
2023-03-21T13:16:39.663Z,94816.88
2023-03-21T13:19:17.500Z,94813.75
2023-03-21T13:21:53.773Z,94825.72
2023-03-21T13:24:30.005Z,94812.38
2023-03-21T13:27:02.814Z,94794.47
2023-03-21T13:29:33.851Z,94805.56
2023-03-21T13:32:11.129Z,94792.72
2023-03-21T13:34:42.825Z,94792.28
2023-03-21T13:37:18.421Z,94745.66
2023-03-21T13:39:50.638Z,94708.59
2023-03-21T13:42:24.758Z,94713.31
2023-03-21T13:44:59.300Z,94779.34
2023-03-21T13:47:37.327Z,94775.09
2023-03-21T13:50:31.218Z,94755.06
2023-03-21T13:53:23.835Z,94783.38
2023-03-21T13:56:24.168Z,94781.47
2023-03-21T13:59:01.566Z,94781.34
2023-03-21T14:01:35.228Z,94741.16
2023-03-21T14:04:20.137Z,94778.69
2023-03-21T14:06:56.090Z,94772.41
2023-03-21T14:09:30.785Z,94771.50
2023-03-21T14:12:07.523Z,94774.88
2023-03-21T14:14:41.415Z,94797.28
2023-03-21T14:17:23.223Z,94778.94
2023-03-21T14:19:54.351Z,94777.22
2023-03-21T14:22:22.819Z,94770.63
2023-03-21T14:24:56.138Z,94780.63
2023-03-21T14:27:29.109Z,94776.31
2023-03-21T14:29:57.908Z,94782.28
2023-03-21T14:32:28.437Z,94769.97
2023-03-21T14:34:57.797Z,94753.03
2023-03-21T14:37:32.619Z,94774.19
2023-03-21T14:40:02.722Z,94785.28
2023-03-21T14:42:35.983Z,94778.00
2023-03-21T14:45:18.901Z,94781.03
2023-03-21T14:48:00.798Z,94767.47
2023-03-21T14:50:40.076Z,94797.78
2023-03-21T14:53:08.985Z,94770.38
2023-03-21T14:55:43.734Z,94770.94
2023-03-21T14:58:17.272Z,94771.81
2023-03-21T15:00:48.794Z,94768.09
2023-03-21T15:03:19.159Z,94773.84
2023-03-21T15:05:47.931Z,94700.66
2023-03-21T15:08:18.524Z,94704.59
2023-03-21T15:11:06.344Z,94679.44
2023-03-21T15:13:38.919Z,94779.47
2023-03-21T15:16:08.615Z,94777.34
2023-03-21T15:18:39.642Z,94784.44
2023-03-21T15:21:13.800Z,94774.31
2023-03-21T15:23:44.802Z,94775.66
2023-03-21T15:26:17.839Z,94773.72
2023-03-21T15:28:49.479Z,94723.84
2023-03-21T15:31:20.386Z,94774.81
2023-03-21T15:33:49.438Z,94683.19
2023-03-21T15:36:22.550Z,94726.09
2023-03-21T15:38:51.565Z,94778.00
2023-03-21T15:41:29.372Z,94780.31
2023-03-21T15:44:07.442Z,94782.44
2023-03-21T15:46:42.896Z,94708.50
2023-03-21T15:49:21.227Z,94787.66
2023-03-21T15:51:53.926Z,94726.53
2023-03-21T15:54:26.010Z,94771.81
2023-03-21T15:56:56.098Z,94772.72
2023-03-21T15:59:29.186Z,94778.97
2023-03-21T16:01:57.708Z,94770.06
2023-03-21T16:04:26.951Z,94763.28
2023-03-21T16:07:00.556Z,94770.41
2023-03-21T16:09:29.885Z,94763.88
2023-03-21T16:11:59.983Z,94762.47
2023-03-21T16:14:30.080Z,94774.34
2023-03-21T16:16:59.241Z,94711.47
2023-03-21T16:19:29.845Z,94737.47
2023-03-21T16:21:58.107Z,94764.34
2023-03-21T16:24:26.404Z,94764.78
2023-03-21T16:26:55.234Z,94765.53
2023-03-21T16:29:23.859Z,94771.94
2023-03-21T16:31:53.765Z,94770.94
2023-03-21T16:34:22.175Z,94779.53
2023-03-21T16:36:50.527Z,94774.50
2023-03-21T16:39:20.662Z,94777.03
2023-03-21T16:41:50.708Z,94778.72
2023-03-21T16:44:19.262Z,94781.09
2023-03-21T16:46:48.399Z,94750.81
2023-03-21T16:49:22.258Z,94785.72
2023-03-21T16:51:50.570Z,94776.78
2023-03-21T16:54:18.906Z,94791.00
2023-03-21T16:56:50.633Z,94779.06
2023-03-21T16:59:19.390Z,94690.00
2023-03-21T17:01:48.776Z,94803.06
2023-03-21T17:04:18.187Z,94819.63
2023-03-21T17:06:49.690Z,94752.66
2023-03-21T17:09:21.396Z,94758.78
2023-03-21T17:11:49.923Z,94803.41
2023-03-21T17:14:18.862Z,94819.50
2023-03-21T17:16:47.494Z,94820.41
2023-03-21T17:19:18.209Z,94817.59
2023-03-21T17:21:47.869Z,94809.91
2023-03-21T17:24:17.037Z,94814.94
2023-03-21T17:26:45.794Z,94823.88
2023-03-21T17:29:15.538Z,94831.44
2023-03-21T17:31:47.548Z,94840.03
2023-03-21T17:34:15.952Z,94842.56
2023-03-21T17:36:46.369Z,94840.69
2023-03-21T17:39:19.830Z,94782.91
2023-03-21T17:41:48.178Z,94837.09
2023-03-21T17:44:16.428Z,94834.31
2023-03-21T17:46:45.084Z,94794.34
2023-03-21T17:49:16.215Z,94812.91
2023-03-21T17:51:47.157Z,94825.66
2023-03-21T17:54:16.871Z,94811.31
2023-03-21T17:56:45.495Z,94820.34
2023-03-21T17:59:14.942Z,94764.59
2023-03-21T18:01:43.301Z,94818.47
2023-03-21T18:04:12.383Z,94810.31
2023-03-21T18:06:40.846Z,94815.94
2023-03-21T18:09:11.937Z,94795.94
2023-03-21T18:11:42.136Z,94801.59
2023-03-21T18:14:17.236Z,94795.69
2023-03-21T18:16:46.953Z,94762.09
2023-03-21T18:19:15.564Z,94804.16
2023-03-21T18:21:45.258Z,94803.66
2023-03-21T18:24:17.199Z,94803.47
2023-03-21T18:26:46.993Z,94800.88
2023-03-21T18:32:08.244Z,94807.84
2023-03-21T18:34:38.779Z,94799.66
2023-03-21T18:37:08.112Z,94805.31
2023-03-21T18:39:37.129Z,94810.72
2023-03-21T18:42:07.818Z,94808.69
2023-03-21T18:44:45.745Z,94802.91
2023-03-21T18:47:14.579Z,94807.31
2023-03-21T18:52:39.027Z,94767.09
2023-03-21T18:55:11.974Z,94713.09
2023-03-21T18:57:41.842Z,94805.78
2023-03-21T19:00:13.277Z,94769.56
2023-03-21T19:02:47.123Z,94812.44
2023-03-21T19:05:17.485Z,94819.44
2023-03-21T19:07:46.554Z,94772.09
2023-03-21T19:10:20.094Z,94745.03
2023-03-21T19:12:51.732Z,94826.84
2023-03-21T19:15:21.912Z,94833.06
2023-03-21T19:18:33.084Z,94827.97
2023-03-21T19:20:44.253Z,94816.72
2023-03-21T19:23:12.549Z,94826.03
2023-03-21T19:25:41.107Z,94781.84
2023-03-21T19:28:11.002Z,94826.84
2023-03-21T19:30:39.820Z,94824.84
2023-03-21T19:33:08.524Z,94828.47
2023-03-21T19:35:40.982Z,94819.38
2023-03-21T19:38:09.389Z,94814.38
2023-03-21T19:40:41.111Z,94809.91
2023-03-21T19:43:31.655Z,94824.91
2023-03-21T19:46:00.882Z,94833.44
2023-03-21T19:48:29.829Z,94819.88
2023-03-21T19:51:26.725Z,94837.38
2023-03-21T19:53:51.312Z,94843.47
2023-03-21T19:56:23.084Z,94835.00
2023-03-21T19:58:54.321Z,94833.72
2023-03-21T20:01:23.133Z,94818.00
2023-03-21T20:03:51.622Z,94827.19
2023-03-21T20:06:20.195Z,94826.59
2023-03-21T20:11:37.018Z,94824.75
2023-03-21T20:14:06.785Z,94825.66
2023-03-21T20:16:36.850Z,94833.28
2023-03-21T20:19:06.020Z,94829.34
2023-03-21T20:21:44.447Z,94825.66
2023-03-21T20:24:16.571Z,94829.97
2023-03-21T20:26:45.930Z,94833.34
2023-03-21T20:32:04.034Z,94833.97
2023-03-21T20:34:32.345Z,94822.69
2023-03-21T20:37:01.182Z,94836.41
2023-03-21T20:39:30.055Z,94834.56
2023-03-21T20:41:59.602Z,94829.91
2023-03-21T20:47:17.876Z,94826.25
2023-03-21T20:49:46.236Z,94829.81
2023-03-21T20:52:52.091Z,94823.72
2023-03-21T20:55:06.900Z,94767.22
2023-03-21T20:57:38.599Z,94821.63
2023-03-21T21:00:15.073Z,94817.34
2023-03-21T21:02:45.200Z,94776.72
2023-03-21T21:05:27.415Z,94805.53
2023-03-21T21:07:56.703Z,94806.50
2023-03-21T21:10:26.006Z,94805.31
2023-03-21T21:12:54.416Z,94805.53
2023-03-21T21:15:24.112Z,94808.72
2023-03-21T21:18:06.650Z,94807.81
2023-03-21T21:20:36.466Z,94805.81
2023-03-21T21:23:05.666Z,94804.28
2023-03-21T21:25:35.618Z,94810.88
2023-03-21T21:28:09.210Z,94810.66
2023-03-21T21:30:42.966Z,94807.63
2023-03-21T21:33:11.320Z,94811.09
2023-03-21T21:35:39.713Z,94780.31
2023-03-21T21:38:08.092Z,94795.47
2023-03-21T21:40:36.648Z,94800.22
2023-03-21T21:43:05.060Z,94803.44
2023-03-21T21:45:33.649Z,94812.00
2023-03-21T21:48:03.496Z,94802.91
2023-03-21T21:50:31.807Z,94739.00
2023-03-21T21:53:03.981Z,94802.09
2023-03-21T21:55:32.314Z,94798.72
2023-03-21T21:58:01.088Z,94814.50
2023-03-21T22:00:32.164Z,94808.63
2023-03-21T22:03:03.047Z,94800.44
2023-03-21T22:05:31.613Z,94808.19
2023-03-21T22:07:59.982Z,94738.72
2023-03-21T22:10:28.611Z,94809.16
2023-03-21T22:12:57.005Z,94800.03
2023-03-21T22:15:25.313Z,94803.72
2023-03-21T22:17:53.949Z,94800.09
2023-03-21T22:20:23.949Z,94802.94
2023-03-21T22:22:52.340Z,94797.03
2023-03-21T22:25:21.155Z,94801.13
2023-03-21T22:27:49.441Z,94797.69
2023-03-21T22:30:18.848Z,94800.25
2023-03-21T22:33:02.549Z,94803.19
2023-03-21T22:35:38.680Z,94803.56
2023-03-21T22:38:07.035Z,94802.59
2023-03-21T22:40:35.474Z,94798.03
2023-03-21T22:43:03.836Z,94804.94
2023-03-21T22:45:33.120Z,94811.13
2023-03-21T22:48:01.455Z,94802.69
2023-03-21T22:50:30.312Z,94806.03
2023-03-21T22:53:00.002Z,94804.84
2023-03-21T22:55:28.328Z,94810.78
2023-03-21T22:57:56.669Z,94812.25
2023-03-21T23:00:25.289Z,94808.47
2023-03-21T23:02:53.810Z,94811.13
2023-03-21T23:05:22.178Z,94808.50
2023-03-21T23:07:50.620Z,94803.59
2023-03-21T23:10:20.735Z,94806.38
2023-03-21T23:12:49.413Z,94791.91
2023-03-21T23:15:17.890Z,94799.88
2023-03-21T23:17:46.754Z,94805.66
2023-03-21T23:20:15.144Z,94804.19
2023-03-21T23:22:43.666Z,94800.22
2023-03-21T23:25:12.090Z,94803.38
2023-03-21T23:27:41.832Z,94757.47
2023-03-21T23:30:11.754Z,94757.38
2023-03-21T23:32:40.127Z,94806.34
2023-03-21T23:35:09.833Z,94806.25
2023-03-21T23:37:38.088Z,94805.09
2023-03-21T23:40:07.438Z,94794.34
2023-03-21T23:42:36.342Z,94799.94
2023-03-21T23:45:07.002Z,94804.28
2023-03-21T23:47:35.389Z,94797.50
2023-03-21T23:50:07.046Z,94800.66
2023-03-21T23:52:35.655Z,94793.84
2023-03-21T23:55:04.077Z,94789.53
2023-03-21T23:57:32.506Z,94790.59
